Time;durP1;ratioP1;P1;durP2;ratioP2;P2;SDS_P1;SDS_P2;PMS_P1;PMS_P2;Temp;Humidity;BMP_temperature;BMP_pressure;BME280_temperature;BME280_humidity;BME280_pressure;Samples;Min_cycle;Max_cycle;Signal;HPM_P1;HPM_P2
2021/03/22 00:02:21;;;;;;;16.38;12.40;;;3.70;99.90;;;;;;5073054;28;20314;-39
2021/03/22 00:04:48;;;;;;;16.75;13.10;;;3.70;99.90;;;;;;5073228;28;20438;-40
2021/03/22 00:25:41;;;;;;;15.25;10.35;;;3.70;99.90;;;;;;5072869;28;20603;-40
2021/03/22 00:28:09;;;;;;;14.73;10.77;;;3.70;99.90;;;;;;5072646;28;20606;-39
2021/03/22 00:30:39;;;;;;;15.55;10.95;;;3.70;99.90;;;;;;5072733;28;20378;-40
2021/03/22 00:33:08;;;;;;;15.45;11.38;;;3.70;99.90;;;;;;5072519;28;20281;-40
2021/03/22 00:35:36;;;;;;;12.60;10.80;;;3.60;99.90;;;;;;5072680;28;20209;-39
2021/03/22 00:38:04;;;;;;;16.80;11.32;;;3.60;99.90;;;;;;5072491;28;20217;-39
2021/03/22 00:40:35;;;;;;;13.95;11.27;;;3.60;99.90;;;;;;5072780;28;20307;-39
2021/03/22 00:43:03;;;;;;;13.27;10.55;;;3.60;99.90;;;;;;5072557;28;20231;-39
2021/03/22 00:45:46;;;;;;;13.40;10.83;;;3.50;99.90;;;;;;5072410;28;20203;-39
2021/03/22 00:48:13;;;;;;;15.95;11.63;;;3.50;99.90;;;;;;5072149;28;20211;-39
2021/03/22 00:50:43;;;;;;;17.20;11.77;;;3.40;99.90;;;;;;5072294;28;20243;-39
2021/03/22 00:53:12;;;;;;;14.75;10.93;;;3.40;99.90;;;;;;5072343;28;20246;-38
2021/03/22 00:55:40;;;;;;;16.60;11.27;;;3.30;99.90;;;;;;5072684;28;20235;-39
2021/03/22 00:58:08;;;;;;;15.93;11.50;;;3.30;99.90;;;;;;5072562;28;20208;-38
2021/03/22 01:00:39;;;;;;;17.23;11.40;;;3.30;99.90;;;;;;5072464;28;20618;-39
2021/03/22 01:03:07;;;;;;;14.98;11.77;;;3.20;99.90;;;;;;5072322;28;20235;-39
2021/03/22 01:05:35;;;;;;;16.83;11.37;;;3.20;99.90;;;;;;5071814;28;20265;-39
2021/03/22 01:08:03;;;;;;;15.00;11.30;;;3.10;99.90;;;;;;5072043;28;20241;-39
2021/03/22 01:10:35;;;;;;;15.63;11.95;;;3.10;99.90;;;;;;5072366;28;20222;-39
2021/03/22 01:13:06;;;;;;;15.95;10.77;;;3.10;99.90;;;;;;5072025;28;20261;-39
2021/03/22 01:15:34;;;;;;;16.20;11.87;;;3.00;99.90;;;;;;5072260;28;20207;-39
2021/03/22 01:18:01;;;;;;;17.88;13.13;;;3.00;99.90;;;;;;5072091;28;20231;-39
2021/03/22 01:20:34;;;;;;;14.73;11.75;;;3.00;99.90;;;;;;5071783;28;20203;-39
2021/03/22 01:23:01;;;;;;;19.92;12.77;;;2.90;99.90;;;;;;5072135;28;20227;-39
2021/03/22 01:25:28;;;;;;;16.73;11.55;;;2.90;99.90;;;;;;5072221;28;20290;-40
2021/03/22 01:27:56;;;;;;;16.65;11.50;;;2.90;99.90;;;;;;5072127;28;20207;-40
2021/03/22 01:30:29;;;;;;;22.00;11.88;;;2.90;99.90;;;;;;5071911;28;20685;-41
2021/03/22 01:32:59;;;;;;;14.48;10.80;;;2.90;99.90;;;;;;5071759;28;20637;-41
2021/03/22 01:35:27;;;;;;;17.95;11.85;;;2.90;99.90;;;;;;5072062;28;20276;-41
2021/03/22 01:37:54;;;;;;;14.98;11.20;;;3.00;99.90;;;;;;5071786;28;20635;-41
2021/03/22 01:40:56;;;;;;;16.65;11.75;;;3.00;99.90;;;;;;5071969;28;20203;-41
2021/03/22 01:43:45;;;;;;;16.05;11.65;;;3.00;99.90;;;;;;5031493;28;20309;-41
2021/03/22 01:46:13;;;;;;;17.75;11.77;;;3.00;99.90;;;;;;5071648;28;20261;-41
2021/03/22 01:48:41;;;;;;;15.23;11.13;;;3.00;99.90;;;;;;5071527;28;20246;-41
2021/03/22 01:51:09;;;;;;;15.75;12.20;;;3.00;99.90;;;;;;5071541;28;20701;-41
2021/03/22 01:53:36;;;;;;;14.20;12.05;;;2.90;99.90;;;;;;5071540;28;20662;-41
2021/03/22 01:56:31;;;;;;;16.93;12.57;;;2.90;99.90;;;;;;5071657;28;20733;-40
2021/03/22 01:58:58;;;;;;;16.42;12.00;;;2.90;99.90;;;;;;5071554;28;20297;-40
2021/03/22 02:01:28;;;;;;;17.33;12.50;;;2.90;99.90;;;;;;5071658;28;20333;-40
2021/03/22 02:03:57;;;;;;;18.88;12.40;;;2.90;99.90;;;;;;5071418;28;20273;-39
2021/03/22 02:06:25;;;;;;;18.13;12.07;;;2.90;99.90;;;;;;5071562;28;20271;-39
2021/03/22 02:08:54;;;;;;;16.73;11.63;;;2.90;99.90;;;;;;5071739;28;20203;-40
2021/03/22 02:11:23;;;;;;;17.77;12.07;;;2.90;99.90;;;;;;5071606;28;20207;-40
2021/03/22 02:13:51;;;;;;;19.50;12.13;;;2.90;99.90;;;;;;5071555;28;20290;-40
2021/03/22 02:16:22;;;;;;;22.83;12.38;;;2.90;99.90;;;;;;5071461;28;20207;-40
2021/03/22 02:19:04;;;;;;;19.48;12.70;;;3.00;99.90;;;;;;5073335;28;20214;-39
2021/03/22 02:22:06;;;;;;;19.80;12.10;;;3.00;99.90;;;;;;5075579;28;20261;-39
2021/03/22 02:25:01;;;;;;;18.48;11.50;;;3.00;99.90;;;;;;5075468;28;20233;-42
2021/03/22 02:28:06;;;;;;;19.88;12.07;;;3.00;99.90;;;;;;5075654;28;20281;-39
2021/03/22 02:31:13;;;;;;;19.58;13.40;;;3.00;99.90;;;;;;5067936;28;20230;-39
2021/03/22 02:34:17;;;;;;;14.20;10.80;;;3.00;99.90;;;;;;5075251;28;20660;-40
2021/03/22 02:37:06;;;;;;;16.33;12.48;;;3.00;99.90;;;;;;5075266;28;20297;-40
2021/03/22 02:39:37;;;;;;;14.88;11.60;;;3.10;99.90;;;;;;5075126;28;20214;-40
2021/03/22 02:42:07;;;;;;;19.00;12.05;;;3.10;99.90;;;;;;5075109;28;20302;-40
2021/03/22 02:44:36;;;;;;;18.20;11.48;;;3.10;99.90;;;;;;5074895;28;20622;-40
2021/03/22 02:47:27;;;;;;;17.80;9.80;;;3.10;99.90;;;;;;5074975;28;20251;-39
2021/03/22 02:49:58;;;;;;;17.33;10.65;;;3.20;99.90;;;;;;5074840;28;20242;-39
2021/03/22 02:52:49;;;;;;;20.05;10.65;;;3.20;99.90;;;;;;5074784;28;20623;-40
2021/03/22 02:55:26;;;;;;;21.15;10.43;;;3.20;99.90;;;;;;5074793;28;20235;-40
2021/03/22 02:57:55;;;;;;;16.70;9.02;;;3.20;99.90;;;;;;5074779;28;20616;-40
2021/03/22 03:00:28;;;;;;;18.60;10.07;;;3.20;99.90;;;;;;5074569;28;20290;-39
2021/03/22 03:02:59;;;;;;;16.60;10.55;;;3.20;99.90;;;;;;5074663;28;20331;-40
2021/03/22 03:05:31;;;;;;;17.38;9.05;;;3.20;99.90;;;;;;5074740;28;20203;-40
2021/03/22 03:07:59;;;;;;;19.67;9.02;;;3.20;99.90;;;;;;5074366;28;20678;-38
2021/03/22 03:10:27;;;;;;;21.02;8.68;;;3.10;99.90;;;;;;5074703;28;20261;-38
2021/03/22 03:12:54;;;;;;;22.38;9.13;;;3.20;99.90;;;;;;5074358;28;20297;-39
2021/03/22 03:15:22;;;;;;;12.70;7.80;;;3.20;99.90;;;;;;5074611;28;20213;-38
2021/03/22 03:17:51;;;;;;;20.65;7.90;;;3.20;99.90;;;;;;5074503;28;20204;-39
2021/03/22 03:20:22;;;;;;;21.45;9.23;;;3.20;99.90;;;;;;5074245;28;20210;-38
2021/03/22 03:22:50;;;;;;;18.95;9.73;;;3.20;99.90;;;;;;5074271;28;20231;-39
2021/03/22 03:25:17;;;;;;;20.88;8.57;;;3.30;99.90;;;;;;5074247;28;20615;-40
2021/03/22 03:27:44;;;;;;;15.35;7.95;;;3.30;99.90;;;;;;5074160;28;20208;-40
2021/03/22 03:30:16;;;;;;;21.27;7.55;;;3.30;99.90;;;;;;5073807;28;20207;-40
2021/03/22 03:32:43;;;;;;;19.52;8.88;;;3.30;99.90;;;;;;5074313;28;20677;-39
2021/03/22 03:35:14;;;;;;;15.82;8.00;;;3.30;99.90;;;;;;5074128;28;20218;-39
2021/03/22 03:37:42;;;;;;;18.10;8.20;;;3.30;99.90;;;;;;5074117;28;20294;-39
2021/03/22 03:40:18;;;;;;;13.88;7.90;;;3.30;99.90;;;;;;5074054;28;20258;-39
2021/03/22 03:42:44;;;;;;;14.30;7.93;;;3.30;99.90;;;;;;5074029;28;20289;-39
2021/03/22 03:45:15;;;;;;;16.63;7.22;;;3.30;99.90;;;;;;5073948;28;20238;-39
2021/03/22 03:47:43;;;;;;;20.47;6.67;;;3.30;99.90;;;;;;5073767;28;20272;-39
2021/03/22 03:50:15;;;;;;;18.55;6.72;;;3.30;99.90;;;;;;5073557;28;20282;-40
2021/03/22 03:52:44;;;;;;;16.55;7.70;;;3.30;99.90;;;;;;5073859;28;20215;-40
2021/03/22 03:55:13;;;;;;;17.83;7.30;;;3.30;99.90;;;;;;5073861;28;20206;-40
2021/03/22 03:57:40;;;;;;;13.43;7.22;;;3.30;99.90;;;;;;5074612;28;20209;-40
2021/03/22 04:00:09;;;;;;;17.52;7.20;;;3.30;99.90;;;;;;5073646;28;20234;-40
2021/03/22 04:02:37;;;;;;;17.23;6.97;;;3.30;99.90;;;;;;5073465;28;20204;-40
2021/03/22 04:05:05;;;;;;;12.20;6.63;;;3.30;99.90;;;;;;5073391;28;20619;-40
2021/03/22 04:07:32;;;;;;;21.45;6.65;;;3.30;99.90;;;;;;5073394;28;20208;-40
2021/03/22 04:09:59;;;;;;;16.20;7.22;;;3.40;99.90;;;;;;5073365;28;20265;-40
2021/03/22 04:12:27;;;;;;;18.17;6.88;;;3.40;99.90;;;;;;5073514;28;20300;-40
2021/03/22 04:14:54;;;;;;;16.60;6.85;;;3.40;99.90;;;;;;5073441;28;20243;-43
2021/03/22 04:17:21;;;;;;;14.70;5.78;;;3.50;99.90;;;;;;5073205;28;20253;-40
2021/03/22 04:19:48;;;;;;;15.30;6.68;;;3.50;99.90;;;;;;5073491;28;20265;-42
2021/03/22 04:22:15;;;;;;;19.45;7.10;;;3.50;99.90;;;;;;5073265;28;20294;-40
2021/03/22 04:24:42;;;;;;;14.10;6.32;;;3.50;99.90;;;;;;5073154;28;20676;-41
2021/03/22 04:27:09;;;;;;;13.10;5.70;;;3.50;99.90;;;;;;5073108;28;20207;-41
2021/03/22 04:29:37;;;;;;;19.52;6.75;;;3.50;99.90;;;;;;5073073;28;20293;-40
2021/03/22 04:32:05;;;;;;;15.40;6.38;;;3.50;99.90;;;;;;5072815;28;20647;-39
2021/03/22 04:34:32;;;;;;;20.58;7.10;;;3.50;99.90;;;;;;5072778;28;20211;-39
2021/03/22 04:36:59;;;;;;;14.18;5.47;;;3.50;99.90;;;;;;5073043;28;20285;-39
2021/03/22 04:39:26;;;;;;;15.05;5.57;;;3.50;99.90;;;;;;5072828;28;20213;-40
2021/03/22 04:41:53;;;;;;;15.57;6.45;;;3.50;99.90;;;;;;5071836;28;20640;-42
2021/03/22 04:44:20;;;;;;;15.88;5.95;;;3.50;99.90;;;;;;5072453;28;20223;-41
2021/03/22 04:46:48;;;;;;;16.55;5.72;;;3.50;99.90;;;;;;5072493;28;20253;-42
2021/03/22 04:49:15;;;;;;;24.80;6.35;;;3.50;99.90;;;;;;5072571;28;20243;-38
2021/03/22 04:51:42;;;;;;;14.85;6.30;;;3.50;99.90;;;;;;5072489;28;20239;-39
2021/03/22 04:54:09;;;;;;;15.15;5.93;;;3.40;99.90;;;;;;5072558;28;20298;-39
2021/03/22 04:56:36;;;;;;;19.38;5.88;;;3.50;99.90;;;;;;5072205;28;20705;-38
2021/03/22 04:59:03;;;;;;;13.38;5.72;;;3.40;99.90;;;;;;5072198;28;20225;-39
2021/03/22 05:01:31;;;;;;;23.17;7.18;;;3.50;99.90;;;;;;5072012;28;20298;-39
2021/03/22 05:03:59;;;;;;;21.23;5.90;;;3.40;99.90;;;;;;5072259;28;20230;-39
2021/03/22 05:06:26;;;;;;;15.82;5.72;;;3.50;99.90;;;;;;5071933;28;20218;-39
2021/03/22 05:08:56;;;;;;;11.50;5.93;;;3.40;99.90;;;;;;5071870;28;20203;-41
2021/03/22 05:11:24;;;;;;;14.68;5.32;;;3.40;99.90;;;;;;5072047;28;20253;-40
2021/03/22 05:13:51;;;;;;;17.52;5.38;;;3.40;99.90;;;;;;5071941;28;20294;-40
2021/03/22 05:16:19;;;;;;;14.98;5.20;;;3.40;99.90;;;;;;5071981;28;20284;-40
2021/03/22 05:18:47;;;;;;;17.53;6.30;;;3.40;99.90;;;;;;5071971;28;20569;-40
2021/03/22 05:21:15;;;;;;;19.35;6.00;;;3.30;99.90;;;;;;5071851;28;20704;-40
2021/03/22 05:23:42;;;;;;;16.43;6.47;;;3.30;99.90;;;;;;5071878;28;20223;-40
2021/03/22 05:26:10;;;;;;;18.15;6.30;;;3.30;99.90;;;;;;5071562;28;20615;-40
2021/03/22 05:28:40;;;;;;;13.48;5.60;;;3.30;99.90;;;;;;5071916;28;20586;-40
2021/03/22 05:31:09;;;;;;;20.92;6.22;;;3.30;99.90;;;;;;5071500;28;20299;-39
2021/03/22 05:33:36;;;;;;;24.80;6.38;;;3.30;99.90;;;;;;5071807;28;20665;-39
2021/03/22 05:36:04;;;;;;;21.17;8.20;;;3.30;99.90;;;;;;5071857;28;20238;-39
2021/03/22 05:38:32;;;;;;;22.85;10.50;;;3.40;99.90;;;;;;5071712;28;20253;-39
2021/03/22 05:41:02;;;;;;;20.52;7.65;;;3.30;99.90;;;;;;5071681;28;20211;-39
2021/03/22 05:43:52;;;;;;;29.83;12.17;;;3.30;99.90;;;;;;5071633;28;20318;-39
2021/03/22 05:46:28;;;;;;;23.38;7.93;;;3.30;99.90;;;;;;5066773;28;20302;-38
2021/03/22 05:49:03;;;;;;;20.50;7.40;;;3.40;99.90;;;;;;5071405;28;20211;-39
2021/03/22 05:51:48;;;;;;;18.83;6.50;;;3.50;99.90;;;;;;5071656;28;20597;-40
2021/03/22 05:54:47;;;;;;;18.80;6.23;;;3.50;99.90;;;;;;5053500;28;20619;-39
2021/03/22 05:57:27;;;;;;;18.27;8.18;;;3.50;99.90;;;;;;5071852;28;20203;-39
2021/03/22 06:00:03;;;;;;;23.80;12.93;;;3.60;99.90;;;;;;5052321;28;20632;-39
2021/03/22 06:02:35;;;;;;;21.08;8.07;;;3.60;99.90;;;;;;5051634;28;20414;-39
2021/03/22 06:05:07;;;;;;;16.77;6.60;;;3.70;99.90;;;;;;5052349;28;20294;-41
2021/03/22 06:07:41;;;;;;;18.35;7.43;;;3.70;99.90;;;;;;5051360;28;20267;-39
2021/03/22 06:10:16;;;;;;;20.05;7.82;;;3.80;99.90;;;;;;5051225;28;20295;-39
2021/03/22 06:12:49;;;;;;;18.33;5.93;;;3.90;99.90;;;;;;5051284;28;20207;-39
2021/03/22 06:15:30;;;;;;;12.93;5.77;;;3.90;99.90;;;;;;5051396;28;20371;-39
2021/03/22 06:18:04;;;;;;;18.90;7.15;;;3.90;99.90;;;;;;5051267;28;20211;-39
2021/03/22 06:20:34;;;;;;;17.42;6.20;;;4.00;99.90;;;;;;5051167;28;20203;-39
2021/03/22 06:23:04;;;;;;;13.60;5.50;;;4.10;99.90;;;;;;5051141;28;20243;-38
2021/03/22 06:25:34;;;;;;;20.65;7.18;;;4.10;99.90;;;;;;5051218;28;20208;-38
2021/03/22 06:28:16;;;;;;;17.17;6.35;;;4.10;99.90;;;;;;5051262;28;20234;-38
2021/03/22 06:30:54;;;;;;;20.95;6.25;;;4.10;99.90;;;;;;5051107;28;20243;-38
2021/03/22 06:33:27;;;;;;;25.05;6.13;;;4.10;99.90;;;;;;5051249;28;20204;-38
2021/03/22 06:35:55;;;;;;;15.75;7.95;;;4.10;99.90;;;;;;5051371;28;20239;-38
2021/03/22 06:38:22;;;;;;;23.65;11.63;;;4.10;99.90;;;;;;5051190;28;20302;-38
2021/03/22 06:40:50;;;;;;;22.98;8.45;;;4.10;99.90;;;;;;5051000;28;20212;-39
2021/03/22 06:43:19;;;;;;;22.90;7.05;;;4.10;99.90;;;;;;5050596;28;20603;-38
2021/03/22 06:45:48;;;;;;;16.80;6.43;;;4.10;99.90;;;;;;5050927;28;20308;-38
2021/03/22 06:48:21;;;;;;;18.27;9.93;;;4.20;99.90;;;;;;5050723;28;20215;-39
2021/03/22 06:50:51;;;;;;;28.65;9.98;;;4.20;99.90;;;;;;5050536;28;20236;-39
2021/03/22 06:53:39;;;;;;;24.58;13.52;;;4.30;99.90;;;;;;5050888;28;20636;-42
2021/03/22 06:56:12;;;;;;;15.57;6.57;;;4.30;99.90;;;;;;5064338;28;20295;-39
2021/03/22 06:58:39;;;;;;;15.82;7.68;;;4.30;99.90;;;;;;5070995;28;20298;-38
2021/03/22 07:01:25;;;;;;;18.42;6.75;;;4.30;99.90;;;;;;5070991;28;20207;-39
2021/03/22 07:03:53;;;;;;;22.75;5.85;;;4.40;99.90;;;;;;5071055;28;20314;-40
2021/03/22 07:06:24;;;;;;;20.23;6.10;;;4.30;99.90;;;;;;5074516;28;20760;-40
2021/03/22 07:08:53;;;;;;;15.52;5.50;;;4.30;99.90;;;;;;5074202;28;20581;-40
2021/03/22 07:11:23;;;;;;;14.85;6.63;;;4.30;99.90;;;;;;5074598;28;20576;-41
2021/03/22 07:13:55;;;;;;;18.67;6.15;;;4.30;99.90;;;;;;5074464;28;20290;-39
2021/03/22 07:16:24;;;;;;;17.17;5.78;;;4.30;99.90;;;;;;5074175;28;20302;-39
2021/03/22 07:19:16;;;;;;;16.15;5.75;;;4.40;99.90;;;;;;5074497;28;20301;-39
2021/03/22 07:21:49;;;;;;;16.40;5.97;;;4.40;99.90;;;;;;5065227;28;20261;-40
2021/03/22 07:24:24;;;;;;;16.02;6.18;;;4.40;99.90;;;;;;5074272;28;20573;-38
2021/03/22 07:27:00;;;;;;;14.73;4.85;;;4.50;99.90;;;;;;5074158;28;20259;-40
2021/03/22 07:30:18;;;;;;;17.15;6.10;;;4.50;99.90;;;;;;5073917;28;20229;-39
2021/03/22 07:32:51;;;;;;;21.55;5.18;;;4.50;99.90;;;;;;5073848;28;20211;-39
2021/03/22 07:35:56;;;;;;;21.95;5.32;;;4.50;99.90;;;;;;5073945;28;20695;-39
2021/03/22 07:38:58;;;;;;;16.35;5.35;;;4.50;99.90;;;;;;5074061;28;20215;-40
2021/03/22 07:41:35;;;;;;;16.92;5.65;;;4.40;99.90;;;;;;5068875;28;20634;-39
2021/03/22 07:44:30;;;;;;;14.23;4.85;;;4.50;99.90;;;;;;5073924;28;20227;-39
2021/03/22 07:47:18;;;;;;;21.23;5.95;;;4.50;99.90;;;;;;5073658;28;20212;-39
2021/03/22 07:49:52;;;;;;;20.38;4.40;;;4.60;99.90;;;;;;5073514;28;20317;-39
2021/03/22 07:52:26;;;;;;;21.23;6.30;;;4.60;99.90;;;;;;5073696;28;20286;-40
2021/03/22 07:55:03;;;;;;;18.52;5.53;;;4.60;99.90;;;;;;5073959;28;20303;-39
2021/03/22 07:57:40;;;;;;;16.13;6.00;;;4.70;99.90;;;;;;5073697;28;20241;-39
2021/03/22 08:00:16;;;;;;;18.80;5.50;;;4.70;99.90;;;;;;5073547;28;20203;-39
2021/03/22 08:03:08;;;;;;;18.02;4.85;;;4.70;99.90;;;;;;5073653;28;20340;-39
2021/03/22 08:06:19;;;;;;;19.00;4.78;;;4.70;99.90;;;;;;5073533;28;20652;-38
2021/03/22 08:08:58;;;;;;;12.77;6.40;;;4.70;99.90;;;;;;5073154;28;20268;-39
2021/03/22 08:11:34;;;;;;;12.35;5.43;;;4.70;99.90;;;;;;5073503;28;20622;-40
2021/03/22 08:14:11;;;;;;;11.32;6.05;;;4.60;99.90;;;;;;5073485;28;20211;-40
2021/03/22 08:17:07;;;;;;;15.70;5.72;;;4.60;99.90;;;;;;5071940;28;20207;-39
2021/03/22 08:19:40;;;;;;;18.67;5.80;;;4.50;99.90;;;;;;5073337;28;20212;-39
2021/03/22 08:22:20;;;;;;;19.30;7.72;;;4.50;99.90;;;;;;5073226;28;20290;-39
2021/03/22 08:24:58;;;;;;;19.63;6.85;;;4.60;99.90;;;;;;5072920;28;20219;-40
2021/03/22 08:27:30;;;;;;;23.17;8.45;;;4.60;99.90;;;;;;5072839;28;20242;-40
2021/03/22 08:30:06;;;;;;;16.15;6.45;;;4.60;99.90;;;;;;5072971;28;20736;-40
2021/03/22 08:32:42;;;;;;;17.98;8.32;;;4.60;99.90;;;;;;5073157;28;20217;-39
2021/03/22 08:35:19;;;;;;;15.15;5.70;;;4.50;99.90;;;;;;5072847;28;20210;-39
2021/03/22 08:37:51;;;;;;;17.13;6.90;;;4.50;99.90;;;;;;5072531;28;20207;-39
2021/03/22 08:40:23;;;;;;;17.20;7.03;;;4.40;99.90;;;;;;5072212;28;20249;-39
2021/03/22 08:42:54;;;;;;;16.25;7.18;;;4.30;99.90;;;;;;5072570;28;20306;-39
2021/03/22 08:45:27;;;;;;;18.33;7.50;;;4.30;99.90;;;;;;5072508;28;20379;-39
2021/03/22 08:48:02;;;;;;;20.98;7.18;;;4.20;99.90;;;;;;5072275;28;20218;-40
2021/03/22 08:50:33;;;;;;;19.67;6.28;;;4.30;99.90;;;;;;5072063;28;20243;-42
2021/03/22 08:53:03;;;;;;;20.08;7.55;;;4.30;99.90;;;;;;5072530;28;20235;-39
2021/03/22 08:55:50;;;;;;;22.92;5.63;;;4.50;99.90;;;;;;5072227;28;20241;-39
2021/03/22 08:58:30;;;;;;;26.30;9.35;;;4.50;99.90;;;;;;5072157;28;20578;-40
2021/03/22 09:01:17;;;;;;;23.88;8.02;;;4.60;99.90;;;;;;5072193;28;20598;-40
2021/03/22 09:03:50;;;;;;;17.63;6.23;;;4.60;99.90;;;;;;5072007;28;20301;-40
2021/03/22 09:06:23;;;;;;;20.77;7.25;;;4.70;99.90;;;;;;5072047;28;20238;-41
2021/03/22 09:09:21;;;;;;;12.50;5.22;;;4.70;99.90;;;;;;5071903;28;20203;-40
2021/03/22 09:11:50;;;;;;;15.87;6.63;;;4.80;99.90;;;;;;5072074;28;20607;-40
2021/03/22 09:14:35;;;;;;;23.27;7.55;;;4.80;99.90;;;;;;5071782;28;20207;-40
2021/03/22 09:17:04;;;;;;;20.95;6.20;;;4.80;99.90;;;;;;5071707;28;20682;-40
2021/03/22 09:19:43;;;;;;;18.60;6.07;;;4.80;99.90;;;;;;5071560;28;20743;-40
2021/03/22 09:22:58;;;;;;;18.08;7.55;;;4.80;99.90;;;;;;5071480;28;20222;-39
2021/03/22 09:25:55;;;;;;;11.43;6.03;;;4.80;99.90;;;;;;5071472;28;20375;-39
2021/03/22 09:29:00;;;;;;;14.27;7.00;;;4.90;99.90;;;;;;5070846;28;20254;-39
2021/03/22 09:31:45;;;;;;;18.85;7.25;;;4.90;99.90;;;;;;5071452;28;20241;-39
2021/03/22 09:34:45;;;;;;;20.75;6.53;;;4.80;99.90;;;;;;5071652;28;20662;-39
2021/03/22 09:37:43;;;;;;;18.23;10.57;;;4.80;99.90;;;;;;5071603;28;20310;-39
2021/03/22 09:40:32;;;;;;;21.03;6.33;;;4.80;99.90;;;;;;5071127;28;20215;-39
2021/03/22 09:43:28;;;;;;;16.15;5.30;;;4.70;99.90;;;;;;5071404;28;20219;-39
2021/03/22 09:46:16;;;;;;;20.07;5.60;;;4.70;99.90;;;;;;5064649;28;20207;-39
2021/03/22 09:48:44;;;;;;;16.63;7.32;;;4.70;99.90;;;;;;5071271;28;20206;-40
2021/03/22 09:51:33;;;;;;;16.65;6.32;;;4.60;99.90;;;;;;5071071;28;20335;-40
2021/03/22 09:54:03;;;;;;;19.48;6.18;;;4.60;99.90;;;;;;5071540;28;20698;-39
2021/03/22 09:56:32;;;;;;;14.02;6.10;;;4.60;99.90;;;;;;5071053;28;20207;-39
2021/03/22 09:59:24;;;;;;;16.30;5.60;;;4.70;99.90;;;;;;5070810;28;20215;-39
2021/03/22 10:01:54;;;;;;;14.77;4.97;;;4.80;99.90;;;;;;5072184;28;20620;-40
2021/03/22 10:04:33;;;;;;;12.82;5.50;;;4.80;99.90;;;;;;5072061;28;20699;-39
2021/03/22 10:07:17;;;;;;;14.07;5.20;;;5.00;99.90;;;;;;5072015;28;20211;-40
2021/03/22 10:09:51;;;;;;;15.90;5.88;;;5.20;99.90;;;;;;5071586;28;20330;-40
2021/03/22 10:12:22;;;;;;;13.98;4.65;;;5.50;99.90;;;;;;5070935;28;20268;-39
2021/03/22 10:15:27;;;;;;;14.82;5.05;;;5.80;99.90;;;;;;5071868;28;20345;-39
2021/03/22 10:18:02;;;;;;;14.23;4.95;;;6.10;99.90;;;;;;5071787;28;20241;-40
2021/03/22 10:20:36;;;;;;;17.10;4.65;;;6.40;99.90;;;;;;5070900;28;20233;-40
2021/03/22 10:23:18;;;;;;;13.98;5.03;;;6.60;99.80;;;;;;5070442;28;20215;-40
2021/03/22 10:25:47;;;;;;;13.25;5.30;;;6.80;99.40;;;;;;5070770;28;20322;-40
2021/03/22 10:28:20;;;;;;;13.07;5.15;;;7.10;99.20;;;;;;5070537;28;20207;-40
2021/03/22 10:31:00;;;;;;;15.27;5.30;;;7.30;98.20;;;;;;5070789;28;20243;-40
2021/03/22 10:33:28;;;;;;;14.00;4.20;;;7.40;97.60;;;;;;5070707;28;20299;-40
2021/03/22 10:35:59;;;;;;;14.77;5.53;;;7.50;97.60;;;;;;5070860;28;20610;-40
2021/03/22 10:38:29;;;;;;;11.18;6.38;;;7.60;96.80;;;;;;5070590;28;20314;-40
2021/03/22 10:40:58;;;;;;;10.30;4.55;;;7.60;96.50;;;;;;5074437;28;20310;-40
2021/03/22 10:43:32;;;;;;;12.07;5.28;;;7.60;96.30;;;;;;5074558;28;20591;-40
2021/03/22 10:46:14;;;;;;;13.30;5.13;;;7.60;96.40;;;;;;5074655;28;20227;-40
2021/03/22 10:48:42;;;;;;;15.32;4.75;;;7.50;96.30;;;;;;5074388;28;20207;-41
2021/03/22 10:51:13;;;;;;;13.98;4.43;;;7.20;96.40;;;;;;5074235;28;20334;-40
2021/03/22 10:53:59;;;;;;;12.93;5.05;;;6.90;96.70;;;;;;5074330;28;20208;-42
2021/03/22 10:56:40;;;;;;;12.18;4.78;;;6.70;96.50;;;;;;5074373;28;20220;-40
2021/03/22 10:59:14;;;;;;;15.35;6.75;;;6.50;97.10;;;;;;5074291;28;20294;-39
2021/03/22 11:01:41;;;;;;;17.98;5.00;;;6.30;97.70;;;;;;5074520;28;20741;-39
2021/03/22 11:04:17;;;;;;;11.68;5.10;;;6.30;97.90;;;;;;5074314;28;20314;-40
2021/03/22 11:06:47;;;;;;;15.70;4.97;;;6.20;98.00;;;;;;5074425;28;20223;-40
2021/03/22 11:09:27;;;;;;;16.48;5.15;;;6.10;98.00;;;;;;5074134;28;20211;-41
2021/03/22 11:11:56;;;;;;;19.70;5.63;;;5.90;97.80;;;;;;5074094;28;20211;-41
2021/03/22 11:14:26;;;;;;;15.60;5.22;;;5.80;98.10;;;;;;5074217;28;20617;-41
2021/03/22 11:16:54;;;;;;;15.60;6.38;;;5.70;98.40;;;;;;5074013;28;20669;-41
2021/03/22 11:19:34;;;;;;;13.68;5.05;;;5.50;98.50;;;;;;5074205;28;20211;-41
2021/03/22 11:22:03;;;;;;;10.32;5.05;;;5.40;98.50;;;;;;5074024;28;20238;-39
2021/03/22 11:24:40;;;;;;;10.05;4.20;;;5.40;98.60;;;;;;5073752;28;20254;-40
2021/03/22 11:27:10;;;;;;;11.32;4.70;;;5.30;98.40;;;;;;5074093;28;20290;-40
2021/03/22 11:29:59;;;;;;;13.98;9.35;;;5.30;98.50;;;;;;5074097;28;20207;-41
2021/03/22 11:32:30;;;;;;;12.18;6.60;;;5.20;98.30;;;;;;5073835;28;20225;-41
2021/03/22 11:34:58;;;;;;;14.40;4.72;;;5.30;98.40;;;;;;5073736;28;20208;-40
2021/03/22 11:37:28;;;;;;;9.82;5.70;;;5.30;98.30;;;;;;5073848;28;20260;-39
2021/03/22 11:40:05;;;;;;;13.50;6.05;;;5.30;98.20;;;;;;5073942;28;20215;-40
2021/03/22 11:42:37;;;;;;;12.38;6.45;;;5.50;97.80;;;;;;5073668;28;20246;-41
2021/03/22 11:45:34;;;;;;;16.27;4.93;;;5.60;97.50;;;;;;5073430;28;20277;-40
2021/03/22 11:48:02;;;;;;;12.52;5.18;;;5.90;97.30;;;;;;5073780;28;20214;-41
2021/03/22 11:50:39;;;;;;;12.73;4.38;;;6.20;96.90;;;;;;5072964;28;20261;-40
2021/03/22 11:53:21;;;;;;;17.17;4.82;;;6.60;96.20;;;;;;5073259;28;20203;-40
2021/03/22 11:55:50;;;;;;;13.43;4.72;;;6.90;95.70;;;;;;5073150;28;20575;-40
2021/03/22 11:58:27;;;;;;;9.95;4.53;;;7.00;95.10;;;;;;5073341;28;20203;-40
2021/03/22 12:00:55;;;;;;;8.30;4.03;;;6.90;94.80;;;;;;5073414;28;20206;-40
2021/03/22 12:03:27;;;;;;;8.63;4.78;;;6.80;95.10;;;;;;5073404;28;20207;-40
2021/03/22 12:06:07;;;;;;;9.10;3.70;;;6.70;95.00;;;;;;5072990;28;20231;-40
2021/03/22 12:08:38;;;;;;;7.03;3.50;;;6.50;94.40;;;;;;5074808;28;20242;-40
2021/03/22 12:11:10;;;;;;;9.15;3.83;;;6.30;95.10;;;;;;5073287;28;20265;-40
2021/03/22 12:13:37;;;;;;;11.13;4.05;;;6.10;95.60;;;;;;5073470;28;20545;-40
2021/03/22 12:16:04;;;;;;;9.68;3.65;;;6.00;95.50;;;;;;5073055;28;20262;-40
2021/03/22 12:18:34;;;;;;;11.50;4.75;;;6.00;95.60;;;;;;5073654;28;20222;-40
2021/03/22 12:21:07;;;;;;;13.07;6.53;;;6.00;95.50;;;;;;5072994;28;20203;-40
2021/03/22 12:23:34;;;;;;;9.88;3.90;;;6.20;95.20;;;;;;5072927;28;20238;-40
2021/03/22 12:26:01;;;;;;;7.90;3.05;;;6.30;95.10;;;;;;5072676;28;20227;-40
2021/03/22 12:28:29;;;;;;;5.85;3.05;;;6.40;94.40;;;;;;5072539;28;20306;-40
2021/03/22 12:30:56;;;;;;;7.10;3.17;;;6.40;93.90;;;;;;5072683;28;20476;-40
2021/03/22 12:33:28;;;;;;;12.63;3.17;;;6.50;93.90;;;;;;5072502;28;20214;-40
2021/03/22 12:35:57;;;;;;;6.82;3.72;;;6.70;93.80;;;;;;5072677;28;20212;-40
2021/03/22 12:38:25;;;;;;;12.52;4.25;;;6.90;93.20;;;;;;5072765;28;20208;-40
2021/03/22 12:40:52;;;;;;;13.98;3.75;;;6.90;92.80;;;;;;5072612;28;20381;-39
2021/03/22 12:43:24;;;;;;;9.25;2.88;;;7.00;92.50;;;;;;5072234;28;20570;-40
2021/03/22 12:45:52;;;;;;;5.60;2.58;;;6.90;92.40;;;;;;5072176;28;20314;-40
2021/03/22 12:48:20;;;;;;;7.82;3.97;;;6.90;92.50;;;;;;5072715;28;20253;-40
2021/03/22 12:50:48;;;;;;;8.57;3.40;;;7.00;92.10;;;;;;5072200;28;20245;-39
2021/03/22 12:53:16;;;;;;;6.28;4.07;;;6.90;92.00;;;;;;5072289;28;20235;-39
2021/03/22 12:55:44;;;;;;;7.65;3.67;;;6.90;92.10;;;;;;5072166;28;20341;-39
2021/03/22 12:58:15;;;;;;;6.10;3.38;;;6.90;92.00;;;;;;5071941;28;20203;-39
2021/03/22 13:00:43;;;;;;;4.15;2.47;;;6.90;91.70;;;;;;5072246;28;20625;-39
2021/03/22 13:03:13;;;;;;;4.63;2.67;;;6.80;91.80;;;;;;5071136;28;20688;-39
2021/03/22 13:05:40;;;;;;;5.43;3.30;;;6.80;91.90;;;;;;5071798;28;20230;-39
2021/03/22 13:08:07;;;;;;;10.13;4.15;;;6.80;92.00;;;;;;5072004;28;20234;-39
2021/03/22 13:10:34;;;;;;;6.78;3.47;;;6.80;92.00;;;;;;5071730;28;20614;-39
2021/03/22 13:13:03;;;;;;;7.68;3.55;;;6.80;91.90;;;;;;5071977;28;20210;-39
2021/03/22 13:15:34;;;;;;;10.38;3.55;;;6.80;91.90;;;;;;5071973;28;20215;-39
2021/03/22 13:18:03;;;;;;;9.35;4.63;;;6.80;92.00;;;;;;5071908;28;20658;-39
2021/03/22 13:20:31;;;;;;;7.45;3.65;;;6.70;92.10;;;;;;5072061;28;20272;-39
2021/03/22 13:22:58;;;;;;;7.85;3.22;;;6.70;91.90;;;;;;5071882;28;20673;-42
2021/03/22 13:25:26;;;;;;;7.47;3.90;;;6.60;92.10;;;;;;5071556;28;20222;-39
2021/03/22 13:27:54;;;;;;;9.93;4.10;;;6.60;92.10;;;;;;5071918;28;20302;-39
2021/03/22 13:30:24;;;;;;;3.95;3.20;;;6.50;92.20;;;;;;5071697;28;20306;-39
2021/03/22 13:32:51;;;;;;;8.25;3.50;;;6.50;92.40;;;;;;5071768;28;20294;-40
2021/03/22 13:35:21;;;;;;;9.68;3.67;;;6.60;92.30;;;;;;5071794;28;20254;-40
2021/03/22 13:37:49;;;;;;;7.00;3.05;;;6.70;92.40;;;;;;5071704;28;20242;-39
2021/03/22 13:40:17;;;;;;;5.47;3.08;;;6.80;92.20;;;;;;5071644;28;20316;-40